Time;durP1;ratioP1;P1;durP2;ratioP2;P2;SDS_P1;SDS_P2;PMS_P1;PMS_P2;Temp;Humidity;BMP_temperature;BMP_pressure;BME280_temperature;BME280_humidity;BME280_pressure;Samples;Min_cycle;Max_cycle;Signal;HPM_P1;HPM_P2
2021/09/17 00:01:15;;;;;;;4.80;3.90;;;19.40;99.90;;;;;;5134087;27;20488;-64
2021/09/17 00:03:42;;;;;;;7.20;4.10;;;19.40;99.90;;;;;;5128476;27;20487;-64
2021/09/17 00:06:09;;;;;;;4.53;3.93;;;19.40;99.90;;;;;;5133977;27;20502;-64
2021/09/17 00:08:36;;;;;;;8.60;5.23;;;19.40;99.90;;;;;;5134015;27;20506;-64
2021/09/17 00:11:06;;;;;;;6.73;4.80;;;19.30;99.90;;;;;;5134203;27;20521;-64
2021/09/17 00:13:34;;;;;;;6.80;5.73;;;19.40;99.90;;;;;;5133667;27;20467;-65
2021/09/17 00:16:01;;;;;;;7.53;5.20;;;19.30;99.90;;;;;;5134194;27;20472;-62
2021/09/17 00:18:28;;;;;;;6.97;5.37;;;19.30;99.90;;;;;;5133738;27;21139;-64
2021/09/17 00:20:55;;;;;;;13.00;10.17;;;19.30;99.90;;;;;;5133858;27;20487;-63
2021/09/17 00:23:22;;;;;;;8.30;6.60;;;19.30;99.90;;;;;;5133636;27;20502;-63
2021/09/17 00:25:49;;;;;;;10.83;6.53;;;19.30;99.90;;;;;;5134050;27;20496;-63
2021/09/17 00:28:16;;;;;;;6.07;5.10;;;19.30;99.90;;;;;;5133513;27;20495;-63
2021/09/17 00:30:44;;;;;;;16.90;13.00;;;19.30;99.90;;;;;;5119892;27;20491;-64
2021/09/17 00:33:11;;;;;;;8.53;7.67;;;19.30;99.90;;;;;;5125469;27;20862;-63
2021/09/17 00:35:38;;;;;;;8.57;6.57;;;19.30;99.90;;;;;;5133481;27;20965;-64
2021/09/17 00:38:05;;;;;;;8.63;4.67;;;19.30;99.90;;;;;;5133534;27;20524;-63
2021/09/17 00:40:32;;;;;;;5.03;4.00;;;19.40;99.90;;;;;;5129265;27;20460;-63
2021/09/17 00:42:59;;;;;;;16.67;12.97;;;19.40;99.90;;;;;;5133432;27;20467;-63
2021/09/17 00:45:26;;;;;;;9.80;7.47;;;19.30;99.90;;;;;;5125696;27;20468;-64
2021/09/17 00:47:54;;;;;;;7.20;6.00;;;19.30;99.90;;;;;;5112038;27;20508;-63
2021/09/17 00:50:23;;;;;;;2.60;2.40;;;19.30;99.90;;;;;;5123952;27;20487;-63
2021/09/17 00:52:51;;;;;;;4.07;3.53;;;19.30;99.90;;;;;;5132062;27;20459;-63
2021/09/17 00:55:19;;;;;;;9.00;5.40;;;19.30;99.90;;;;;;5132668;27;20468;-63
2021/09/17 00:57:46;;;;;;;4.40;4.00;;;19.30;99.90;;;;;;5133437;27;20826;-63
2021/09/17 01:00:15;;;;;;;5.77;4.23;;;19.30;99.90;;;;;;5133044;27;20495;-63
2021/09/17 01:02:42;;;;;;;4.63;2.67;;;19.30;99.90;;;;;;5116041;27;20495;-65
2021/09/17 01:05:13;;;;;;;6.00;4.10;;;19.20;99.90;;;;;;5132831;27;20568;-62
2021/09/17 01:07:40;;;;;;;9.40;5.67;;;19.20;99.90;;;;;;5130838;27;21042;-63
2021/09/17 01:10:08;;;;;;;4.50;3.33;;;19.20;99.90;;;;;;5131575;27;20488;-63
2021/09/17 01:12:35;;;;;;;4.40;4.00;;;19.20;99.90;;;;;;5131960;27;20554;-63
2021/09/17 01:15:03;;;;;;;4.87;4.00;;;19.20;99.90;;;;;;5132882;27;20548;-63
2021/09/17 01:17:33;;;;;;;4.50;2.83;;;19.20;99.90;;;;;;5131044;27;20969;-62
2021/09/17 01:20:01;;;;;;;3.93;3.23;;;19.20;99.90;;;;;;5132115;27;20841;-62
2021/09/17 01:22:29;;;;;;;7.50;6.60;;;19.20;99.90;;;;;;5130491;27;20487;-62
2021/09/17 01:24:56;;;;;;;5.17;3.97;;;19.20;99.90;;;;;;5131032;27;20551;-62
2021/09/17 01:27:24;;;;;;;4.10;3.27;;;19.20;99.90;;;;;;5130139;27;20499;-63
2021/09/17 01:29:51;;;;;;;8.07;6.47;;;19.20;99.90;;;;;;5130985;27;20494;-62
2021/09/17 01:32:18;;;;;;;7.10;5.40;;;19.20;99.90;;;;;;5130036;27;20487;-62
2021/09/17 01:34:45;;;;;;;8.87;5.43;;;19.10;99.90;;;;;;5130561;27;20498;-62
2021/09/17 01:37:12;;;;;;;8.47;7.23;;;19.10;99.90;;;;;;5117820;27;20487;-62
2021/09/17 01:39:41;;;;;;;10.27;7.97;;;19.10;99.90;;;;;;5130520;27;20487;-62
2021/09/17 01:42:08;;;;;;;9.00;6.50;;;19.10;99.90;;;;;;5131272;27;20487;-63
2021/09/17 01:44:39;;;;;;;16.10;14.40;;;19.10;99.90;;;;;;5131017;27;20519;-62
2021/09/17 01:47:07;;;;;;;11.30;9.30;;;19.10;99.90;;;;;;5131324;27;20981;-63
2021/09/17 01:49:34;;;;;;;5.20;4.47;;;19.10;99.90;;;;;;5130936;27;20551;-63
2021/09/17 01:52:02;;;;;;;11.60;8.90;;;19.10;99.90;;;;;;5132520;27;20494;-63
2021/09/17 01:54:29;;;;;;;90.40;70.90;;;19.10;99.90;;;;;;5132596;27;20538;-63
2021/09/17 01:56:57;;;;;;;21.83;18.23;;;19.10;99.90;;;;;;5131935;27;20480;-63
2021/09/17 01:59:24;;;;;;;9.23;8.10;;;19.10;99.90;;;;;;5124843;27;20492;-63
2021/09/17 02:01:50;;;;;;;9.10;5.90;;;19.10;99.90;;;;;;5116554;27;20476;-63
2021/09/17 02:04:19;;;;;;;11.37;9.57;;;19.10;99.90;;;;;;5131565;27;20499;-63
2021/09/17 02:06:46;;;;;;;11.80;10.30;;;19.10;99.90;;;;;;5128730;27;20488;-63
2021/09/17 02:09:13;;;;;;;7.60;6.23;;;19.20;99.90;;;;;;5112193;27;20503;-63
2021/09/17 02:11:40;;;;;;;9.13;8.27;;;19.20;99.90;;;;;;5113621;27;20461;-64
2021/09/17 02:14:08;;;;;;;9.97;7.60;;;19.20;99.90;;;;;;5116113;27;20500;-63
2021/09/17 02:16:35;;;;;;;12.17;8.93;;;19.10;99.90;;;;;;5130583;27;20524;-63
2021/09/17 02:19:02;;;;;;;12.30;9.70;;;19.10;99.90;;;;;;5136899;27;20838;-63
2021/09/17 02:21:29;;;;;;;9.10;6.73;;;19.10;99.90;;;;;;5135971;27;20495;-63
2021/09/17 02:23:56;;;;;;;4.93;4.40;;;19.10;99.90;;;;;;5136592;27;20452;-63
2021/09/17 02:26:26;;;;;;;10.00;7.03;;;19.00;99.90;;;;;;5136407;27;20491;-63
2021/09/17 02:28:53;;;;;;;8.17;5.93;;;19.10;99.90;;;;;;5136508;27;20483;-63
2021/09/17 02:31:21;;;;;;;9.60;7.37;;;19.00;99.90;;;;;;5136303;27;20981;-64
2021/09/17 02:33:48;;;;;;;5.40;4.90;;;19.00;99.90;;;;;;5119698;27;20507;-63
2021/09/17 02:36:15;;;;;;;7.57;6.77;;;19.00;99.90;;;;;;5115800;27;20574;-63
2021/09/17 02:38:42;;;;;;;10.83;8.40;;;19.00;99.90;;;;;;5115191;27;20504;-63
2021/09/17 02:41:09;;;;;;;8.40;7.33;;;19.00;99.90;;;;;;5115957;27;20487;-63
2021/09/17 02:43:36;;;;;;;6.13;4.47;;;19.00;99.90;;;;;;5115070;27;20484;-63
2021/09/17 02:46:02;;;;;;;5.30;4.80;;;19.00;99.90;;;;;;5115591;27;20502;-63
2021/09/17 02:48:31;;;;;;;7.13;5.80;;;19.00;99.90;;;;;;5115126;27;20484;-63
2021/09/17 02:50:58;;;;;;;10.87;6.87;;;19.00;99.90;;;;;;5115417;27;20488;-63
2021/09/17 02:53:25;;;;;;;8.53;6.50;;;19.00;99.90;;;;;;5115398;27;20821;-62
2021/09/17 02:55:52;;;;;;;7.50;5.87;;;19.00;99.90;;;;;;5115217;27;20509;-63
2021/09/17 02:58:19;;;;;;;7.60;5.60;;;19.00;99.90;;;;;;5115261;27;20499;-63
2021/09/17 03:00:46;;;;;;;6.90;4.50;;;18.90;99.90;;;;;;5113991;27;20488;-63
2021/09/17 03:03:15;;;;;;;9.57;4.93;;;18.90;99.90;;;;;;5113723;27;20495;-63
2021/09/17 03:05:44;;;;;;;20.67;18.63;;;18.90;99.90;;;;;;5113784;27;20468;-63
2021/09/17 03:08:12;;;;;;;7.40;6.37;;;18.90;99.90;;;;;;5115051;27;20529;-63
2021/09/17 03:10:38;;;;;;;6.60;4.93;;;19.00;99.90;;;;;;5114644;27;20870;-63
2021/09/17 03:13:05;;;;;;;2.77;2.57;;;19.00;99.90;;;;;;5114805;27;20513;-63
2021/09/17 03:15:32;;;;;;;5.47;3.93;;;18.90;99.90;;;;;;5112916;27;20488;-63
2021/09/17 03:17:59;;;;;;;5.40;4.27;;;19.00;99.90;;;;;;5113190;27;21003;-63
2021/09/17 03:20:26;;;;;;;3.60;3.30;;;18.90;99.90;;;;;;5113048;27;20488;-63
2021/09/17 03:22:54;;;;;;;3.27;2.97;;;18.80;99.90;;;;;;5112833;27;20476;-63
2021/09/17 03:25:21;;;;;;;4.23;3.67;;;18.80;99.90;;;;;;5113153;27;20900;-63
2021/09/17 03:27:48;;;;;;;5.60;3.37;;;18.80;99.90;;;;;;5113035;27;20492;-63
2021/09/17 03:30:15;;;;;;;6.07;3.23;;;18.80;99.90;;;;;;5114798;27;20982;-63
2021/09/17 03:32:42;;;;;;;6.40;5.20;;;18.80;99.90;;;;;;5114302;27;20472;-63
2021/09/17 03:35:09;;;;;;;4.37;2.80;;;18.80;99.90;;;;;;5114591;27;20491;-63
2021/09/17 03:37:36;;;;;;;3.60;3.30;;;18.70;99.90;;;;;;5114155;27;20495;-63
2021/09/17 03:40:05;;;;;;;4.47;3.60;;;18.70;99.90;;;;;;5114490;27;20499;-63
2021/09/17 03:42:32;;;;;;;6.53;3.67;;;18.70;99.90;;;;;;5114231;27;20494;-63
2021/09/17 03:44:59;;;;;;;4.40;4.00;;;18.70;99.90;;;;;;5114495;27;20480;-63
2021/09/17 03:47:26;;;;;;;4.40;4.10;;;18.70;99.90;;;;;;5114282;27;20494;-63
2021/09/17 03:49:53;;;;;;;5.80;3.50;;;18.60;99.90;;;;;;5113790;27;20480;-63
2021/09/17 03:52:20;;;;;;;5.23;3.30;;;18.60;99.90;;;;;;5114418;27;20507;-63
2021/09/17 03:54:47;;;;;;;4.30;3.10;;;18.60;99.90;;;;;;5113824;27;20484;-63
2021/09/17 03:57:15;;;;;;;6.50;5.63;;;18.60;99.90;;;;;;5114161;27;20491;-63
2021/09/17 03:59:42;;;;;;;9.07;7.20;;;18.70;99.90;;;;;;5113825;27;20496;-63
2021/09/17 04:02:09;;;;;;;5.67;4.90;;;18.60;99.90;;;;;;5114145;27;20480;-63
2021/09/17 04:04:36;;;;;;;4.60;3.90;;;18.60;99.90;;;;;;5113448;27;20488;-63
2021/09/17 04:07:03;;;;;;;4.53;4.13;;;18.60;99.90;;;;;;5114028;27;20480;-63
2021/09/17 04:09:30;;;;;;;4.73;4.00;;;18.60;99.90;;;;;;5113852;27;20522;-63
2021/09/17 04:11:57;;;;;;;11.47;4.50;;;18.60;99.90;;;;;;5113597;27;20498;-63
2021/09/17 04:14:26;;;;;;;4.67;4.03;;;18.60;99.90;;;;;;5113845;27;20480;-63
2021/09/17 04:16:53;;;;;;;3.30;2.93;;;18.60;99.90;;;;;;5113410;27;22867;-62
2021/09/17 04:19:20;;;;;;;6.60;3.00;;;18.50;99.90;;;;;;5113884;27;20514;-63
2021/09/17 04:21:46;;;;;;;4.83;2.57;;;18.50;99.90;;;;;;5113292;27;20495;-63
2021/09/17 04:24:13;;;;;;;2.97;2.50;;;18.50;99.90;;;;;;5113750;27;20484;-63
2021/09/17 04:26:40;;;;;;;4.67;2.90;;;18.40;99.90;;;;;;5113396;27;20491;-63
2021/09/17 04:29:07;;;;;;;5.67;3.60;;;18.40;99.90;;;;;;5113386;27;20484;-63
2021/09/17 04:31:35;;;;;;;3.00;2.50;;;18.30;99.90;;;;;;5113294;27;20503;-63
2021/09/17 04:34:02;;;;;;;3.43;2.50;;;18.30;99.90;;;;;;5113314;27;20496;-63
2021/09/17 04:36:29;;;;;;;3.50;2.90;;;18.20;99.90;;;;;;5113543;27;20488;-63
2021/09/17 04:38:56;;;;;;;4.03;2.23;;;18.20;99.90;;;;;;5113002;27;20485;-63
2021/09/17 04:41:23;;;;;;;4.00;2.70;;;18.20;99.90;;;;;;5113547;27;20460;-63
2021/09/17 04:43:49;;;;;;;2.33;2.00;;;18.20;99.90;;;;;;5113083;27;20492;-63
2021/09/17 04:46:16;;;;;;;3.57;2.47;;;18.20;99.90;;;;;;5113525;27;20846;-63
2021/09/17 04:48:44;;;;;;;2.13;1.90;;;18.20;99.90;;;;;;5112822;27;20540;-63
2021/09/17 04:51:11;;;;;;;4.90;2.00;;;18.10;99.90;;;;;;5113220;27;20843;-63
2021/09/17 04:53:38;;;;;;;2.23;1.70;;;18.10;99.90;;;;;;5113074;27;20492;-63
2021/09/17 04:56:05;;;;;;;2.67;2.37;;;18.20;99.90;;;;;;5113207;27;20533;-63
2021/09/17 04:58:32;;;;;;;1.77;1.67;;;18.20;99.90;;;;;;5113061;27;20500;-63
2021/09/17 05:00:59;;;;;;;3.77;1.90;;;18.10;99.90;;;;;;5112805;27;20491;-63
2021/09/17 05:03:26;;;;;;;1.90;1.80;;;18.10;99.90;;;;;;5112948;27;20522;-63
2021/09/17 05:05:54;;;;;;;2.60;1.83;;;18.10;99.90;;;;;;5112513;27;20488;-63
2021/09/17 05:08:21;;;;;;;1.87;1.60;;;18.10;99.90;;;;;;5113134;27;20564;-63
2021/09/17 05:10:48;;;;;;;3.53;2.47;;;18.10;99.90;;;;;;5112770;27;20488;-63
2021/09/17 05:13:14;;;;;;;3.20;2.53;;;18.10;99.90;;;;;;5112988;27;20484;-63
2021/09/17 05:15:41;;;;;;;4.73;2.27;;;18.10;99.90;;;;;;5112783;27;20460;-63
2021/09/17 05:18:08;;;;;;;2.10;1.73;;;18.10;99.90;;;;;;5112867;27;20488;-63
2021/09/17 05:20:35;;;;;;;5.07;2.33;;;18.10;99.90;;;;;;5112934;27;20492;-63
2021/09/17 05:23:04;;;;;;;4.70;2.80;;;18.10;99.90;;;;;;5112536;27;20495;-62
2021/09/17 05:25:31;;;;;;;3.43;2.03;;;18.10;99.90;;;;;;5112945;27;20476;-62
2021/09/17 05:27:58;;;;;;;2.13;1.50;;;18.10;99.90;;;;;;5112478;27;20488;-63
2021/09/17 05:30:25;;;;;;;2.03;1.60;;;18.10;99.90;;;;;;5113018;27;20958;-63
2021/09/17 05:32:52;;;;;;;5.60;3.60;;;18.10;99.90;;;;;;5112483;27;20529;-63
2021/09/17 05:35:19;;;;;;;4.47;3.33;;;18.10;99.90;;;;;;5112893;27;20495;-63
2021/09/17 05:37:46;;;;;;;2.93;2.60;;;18.10;99.90;;;;;;5112454;27;20521;-63
2021/09/17 05:40:15;;;;;;;3.47;3.10;;;18.10;99.90;;;;;;5112764;27;20461;-63
2021/09/17 05:42:42;;;;;;;2.60;2.20;;;18.10;99.90;;;;;;5112428;27;20487;-62
2021/09/17 05:45:10;;;;;;;2.50;1.90;;;18.10;99.90;;;;;;5112949;27;20495;-63
2021/09/17 05:47:36;;;;;;;3.43;3.13;;;18.10;99.90;;;;;;5116808;27;20628;-63
2021/09/17 05:50:04;;;;;;;2.40;1.87;;;18.00;99.90;;;;;;5116241;27;20518;-63
2021/09/17 05:52:31;;;;;;;2.97;2.57;;;18.10;99.90;;;;;;5116710;27;20839;-63
2021/09/17 05:54:58;;;;;;;3.30;2.67;;;18.00;99.90;;;;;;5116190;27;20930;-63
2021/09/17 05:57:26;;;;;;;2.23;2.03;;;18.00;99.90;;;;;;5116722;27;20487;-63
2021/09/17 05:59:53;;;;;;;4.97;2.10;;;17.90;99.90;;;;;;5116072;27;20469;-64
2021/09/17 06:02:20;;;;;;;2.90;1.90;;;17.90;99.90;;;;;;5116313;27;20529;-63
2021/09/17 06:04:46;;;;;;;2.73;2.50;;;17.90;99.90;;;;;;5116162;27;20510;-63
2021/09/17 06:07:13;;;;;;;2.67;1.90;;;17.90;99.90;;;;;;5116391;27;20484;-63
2021/09/17 06:09:40;;;;;;;4.30;3.30;;;17.80;99.90;;;;;;5116029;27;20484;-63
2021/09/17 06:12:08;;;;;;;3.30;2.20;;;17.80;99.90;;;;;;5116298;27;20448;-63
2021/09/17 06:14:36;;;;;;;3.57;2.07;;;17.80;99.90;;;;;;5116308;27;20519;-63
2021/09/17 06:17:03;;;;;;;2.53;1.40;;;17.80;99.90;;;;;;5115885;27;20603;-63
2021/09/17 06:19:30;;;;;;;1.47;1.00;;;17.80;99.90;;;;;;5116079;27;20503;-63
2021/09/17 06:21:57;;;;;;;2.63;1.20;;;17.80;99.90;;;;;;5115537;27;20500;-63
2021/09/17 06:24:24;;;;;;;1.73;0.80;;;17.80;99.90;;;;;;5116301;27;20492;-63
2021/09/17 06:26:51;;;;;;;1.23;1.00;;;17.80;99.90;;;;;;5115361;27;20492;-64
2021/09/17 06:29:18;;;;;;;2.70;1.40;;;17.80;99.90;;;;;;5115911;27;20507;-64
2021/09/17 06:31:46;;;;;;;1.60;1.10;;;17.80;99.90;;;;;;5115674;27;20523;-64
2021/09/17 06:34:13;;;;;;;3.00;1.50;;;17.80;99.90;;;;;;5115911;27;20486;-64
2021/09/17 06:36:40;;;;;;;2.00;1.10;;;17.80;99.90;;;;;;5115712;27;20468;-64
2021/09/17 06:39:08;;;;;;;1.27;1.17;;;17.80;99.90;;;;;;5115410;27;20488;-64
2021/09/17 06:41:35;;;;;;;1.10;1.00;;;17.90;99.90;;;;;;5115572;27;20469;-64
2021/09/17 06:44:01;;;;;;;4.17;1.37;;;17.90;99.90;;;;;;5115331;27;20552;-64
2021/09/17 06:46:28;;;;;;;2.90;2.70;;;17.90;99.90;;;;;;5115729;27;20480;-64
2021/09/17 06:48:57;;;;;;;2.10;1.90;;;17.90;99.90;;;;;;5114936;27;20488;-63
2021/09/17 06:51:23;;;;;;;2.20;2.00;;;18.00;99.90;;;;;;5115339;27;20468;-64
2021/09/17 06:53:50;;;;;;;2.20;1.40;;;18.00;99.90;;;;;;5115156;27;20961;-64
2021/09/17 06:56:17;;;;;;;2.43;2.10;;;18.00;99.90;;;;;;5115128;27;20499;-63
2021/09/17 06:58:44;;;;;;;1.60;1.50;;;18.10;99.90;;;;;;5115260;27;20832;-63
2021/09/17 07:01:11;;;;;;;1.90;1.80;;;18.10;99.90;;;;;;5115021;27;20500;-63
2021/09/17 07:03:38;;;;;;;1.30;1.20;;;18.10;99.90;;;;;;5115206;27;20981;-63
2021/09/17 07:06:06;;;;;;;3.10;1.73;;;18.10;99.90;;;;;;5114772;27;20874;-63
2021/09/17 07:08:33;;;;;;;1.37;0.97;;;18.20;99.90;;;;;;5115272;27;20559;-63
2021/09/17 07:11:00;;;;;;;2.00;1.00;;;18.20;99.90;;;;;;5114641;27;20537;-63
2021/09/17 07:13:27;;;;;;;1.10;1.00;;;18.20;99.90;;;;;;5115159;27;20488;-63
2021/09/17 07:15:54;;;;;;;1.13;0.70;;;18.20;99.90;;;;;;5114800;27;20856;-63
2021/09/17 07:18:21;;;;;;;1.60;0.97;;;18.30;99.90;;;;;;5114958;27;20480;-63
2021/09/17 07:20:50;;;;;;;0.97;0.87;;;18.30;99.90;;;;;;5115043;27;20499;-63
2021/09/17 07:23:18;;;;;;;1.80;1.03;;;18.30;99.90;;;;;;5114392;27;20452;-63
2021/09/17 07:25:45;;;;;;;1.80;1.00;;;18.30;99.90;;;;;;5114966;27;20988;-63
2021/09/17 07:28:12;;;;;;;2.50;1.33;;;18.40;99.90;;;;;;5114397;27;25593;-63
2021/09/17 07:30:39;;;;;;;1.30;0.80;;;18.40;99.90;;;;;;5114794;27;20465;-62
2021/09/17 07:33:06;;;;;;;2.77;1.23;;;18.40;99.90;;;;;;5114348;27;20967;-63
2021/09/17 07:35:33;;;;;;;1.30;1.00;;;18.50;99.90;;;;;;5114428;27;20457;-63
2021/09/17 07:38:01;;;;;;;1.47;1.20;;;18.50;99.90;;;;;;5114273;27;20589;-63
2021/09/17 07:40:30;;;;;;;1.77;1.00;;;18.50;99.90;;;;;;5114618;27;20537;-63
2021/09/17 07:42:57;;;;;;;4.03;2.97;;;18.60;99.90;;;;;;5114154;27;20504;-63
2021/09/17 07:45:25;;;;;;;2.43;2.23;;;18.60;99.90;;;;;;5114444;27;20600;-63
2021/09/17 07:47:52;;;;;;;2.70;1.53;;;18.60;99.90;;;;;;5114461;27;20489;-63
2021/09/17 07:50:19;;;;;;;2.37;1.70;;;18.70;99.90;;;;;;5113997;27;20488;-63
2021/09/17 07:52:46;;;;;;;1.57;1.00;;;18.70;99.90;;;;;;5114272;27;20473;-63
2021/09/17 07:55:13;;;;;;;2.00;1.13;;;18.70;99.90;;;;;;5113844;27;20499;-63
2021/09/17 07:57:42;;;;;;;1.20;1.10;;;18.80;99.90;;;;;;5114349;27;20464;-63
2021/09/17 08:00:11;;;;;;;2.50;1.17;;;18.80;99.90;;;;;;5113735;27;20496;-63
2021/09/17 08:02:38;;;;;;;1.77;0.90;;;18.90;99.90;;;;;;5114219;27;20496;-63
2021/09/17 08:05:05;;;;;;;1.50;1.40;;;18.90;99.90;;;;;;5113738;27;20461;-63
2021/09/17 08:07:32;;;;;;;1.60;1.50;;;18.90;99.90;;;;;;5113988;27;20557;-63
2021/09/17 08:09:59;;;;;;;2.97;1.90;;;18.90;99.90;;;;;;5113015;27;20570;-63
2021/09/17 08:12:26;;;;;;;2.77;2.10;;;18.90;99.90;;;;;;5114308;27;20498;-63
2021/09/17 08:14:54;;;;;;;3.53;1.90;;;19.00;99.90;;;;;;5113918;27;20496;-63
2021/09/17 08:17:21;;;;;;;1.90;1.50;;;19.10;99.90;;;;;;5113798;27;20858;-63
2021/09/17 08:19:48;;;;;;;1.07;0.90;;;19.10;99.90;;;;;;5113840;27;20489;-63
2021/09/17 08:22:15;;;;;;;1.50;1.10;;;19.20;99.90;;;;;;5113247;27;20513;-63
2021/09/17 08:24:42;;;;;;;1.17;0.80;;;19.10;99.90;;;;;;5113982;27;20879;-63
2021/09/17 08:27:09;;;;;;;1.10;1.00;;;19.20;99.90;;;;;;5113207;27;20495;-63
2021/09/17 08:29:36;;;;;;;1.20;1.10;;;19.20;99.90;;;;;;5113514;27;21153;-63
2021/09/17 08:32:05;;;;;;;1.00;0.90;;;19.20;99.90;;;;;;5113265;27;20492;-63
2021/09/17 08:34:31;;;;;;;2.13;1.00;;;19.20;99.90;;;;;;5113537;27;20488;-63
2021/09/17 08:36:58;;;;;;;2.30;1.30;;;19.30;99.90;;;;;;5113120;27;20488;-63
2021/09/17 08:39:25;;;;;;;1.63;1.10;;;19.30;99.90;;;;;;5113644;27;20503;-63
2021/09/17 08:41:52;;;;;;;1.30;0.93;;;19.30;99.90;;;;;;5113464;27;20484;-63
2021/09/17 08:44:19;;;;;;;1.97;1.17;;;19.40;99.90;;;;;;5112996;27;20484;-64
2021/09/17 08:46:46;;;;;;;1.20;0.90;;;19.40;99.90;;;;;;5113548;27;20994;-63
2021/09/17 08:49:14;;;;;;;1.00;0.80;;;19.40;99.90;;;;;;5112715;27;20549;-63
2021/09/17 08:51:41;;;;;;;3.93;2.27;;;19.50;99.90;;;;;;5113260;27;20488;-63
2021/09/17 08:54:08;;;;;;;2.13;1.53;;;19.50;99.90;;;;;;5113073;27;20503;-63
2021/09/17 08:56:36;;;;;;;1.20;1.10;;;19.50;99.90;;;;;;5113221;27;20846;-63
2021/09/17 08:59:02;;;;;;;1.30;1.03;;;19.60;99.90;;;;;;5112710;27;20492;-63
2021/09/17 09:01:31;;;;;;;1.20;0.90;;;19.60;99.90;;;;;;5113467;27;20492;-63
2021/09/17 09:04:02;;;;;;;2.60;1.00;;;19.60;99.90;;;;;;5113010;27;20469;-63
2021/09/17 09:06:35;;;;;;;1.10;0.87;;;19.60;99.90;;;;;;5113037;27;20513;-62
2021/09/17 09:09:02;;;;;;;1.60;1.50;;;19.60;99.90;;;;;;5112989;27;20508;-62
2021/09/17 09:11:31;;;;;;;3.87;3.57;;;19.60;99.90;;;;;;5112817;27;20464;-63
2021/09/17 09:14:04;;;;;;;1.83;1.30;;;19.70;99.90;;;;;;5113111;27;20531;-63
2021/09/17 09:16:34;;;;;;;1.50;1.10;;;19.70;99.90;;;;;;5112770;27;20538;-63
2021/09/17 09:19:20;;;;;;;3.57;1.60;;;19.70;99.90;;;;;;5112994;27;20491;-63
2021/09/17 09:21:54;;;;;;;1.80;0.90;;;19.80;99.90;;;;;;5117075;27;20456;-63
2021/09/17 09:24:23;;;;;;;1.10;1.00;;;19.80;99.90;;;;;;5117241;27;20479;-63
2021/09/17 09:27:13;;;;;;;1.73;1.33;;;19.80;99.90;;;;;;5116710;27;20545;-63
2021/09/17 09:29:42;;;;;;;2.60;1.10;;;19.90;99.90;;;;;;5113925;27;20496;-63
2021/09/17 09:32:24;;;;;;;1.10;1.00;;;19.90;99.90;;;;;;5116637;27;20484;-63
2021/09/17 09:34:54;;;;;;;1.57;1.47;;;19.90;99.90;;;;;;5116695;27;20472;-63
2021/09/17 09:37:24;;;;;;;2.67;1.33;;;19.90;99.90;;;;;;5116815;27;20495;-63
2021/09/17 09:39:57;;;;;;;1.10;1.00;;;19.90;99.90;;;;;;5116357;27;20488;-63
2021/09/17 09:42:32;;;;;;;1.10;1.00;;;20.00;99.90;;;;;;5117017;27;20985;-63
2021/09/17 09:45:17;;;;;;;1.87;1.30;;;20.00;99.90;;;;;;5116447;27;20503;-63
2021/09/17 09:47:47;;;;;;;4.00;3.63;;;20.00;99.90;;;;;;5116639;27;20459;-63
2021/09/17 09:50:16;;;;;;;3.30;3.00;;;19.90;99.90;;;;;;5116244;27;20618;-63
2021/09/17 09:52:44;;;;;;;2.17;1.97;;;19.90;99.90;;;;;;5116835;27;20502;-64
2021/09/17 09:55:12;;;;;;;1.27;1.17;;;19.90;99.90;;;;;;5116317;27;21023;-64
2021/09/17 09:57:41;;;;;;;1.63;1.10;;;19.90;99.90;;;;;;5116345;27;20492;-64
2021/09/17 10:00:10;;;;;;;2.40;0.87;;;19.90;99.90;;;;;;5116285;27;20863;-64
2021/09/17 10:02:38;;;;;;;1.63;0.80;;;19.90;99.90;;;;;;5116531;27;20604;-64
2021/09/17 10:05:06;;;;;;;1.30;0.80;;;19.90;99.90;;;;;;5115940;27;20529;-62
2021/09/17 10:07:34;;;;;;;1.17;0.90;;;19.90;99.90;;;;;;5116480;27;20488;-62
2021/09/17 10:10:04;;;;;;;0.97;0.83;;;19.90;99.90;;;;;;5116037;27;20875;-63
2021/09/17 10:12:31;;;;;;;2.40;0.80;;;19.90;99.90;;;;;;5116318;27;20499;-63
2021/09/17 10:14:59;;;;;;;4.20;1.10;;;19.90;99.90;;;;;;5115948;27;20518;-64
2021/09/17 10:17:29;;;;;;;1.57;1.10;;;19.90;99.90;;;;;;5116357;27;20533;-62
2021/09/17 10:19:58;;;;;;;3.07;1.10;;;19.90;99.90;;;;;;5115713;27;20488;-63
2021/09/17 10:22:30;;;;;;;1.20;1.00;;;19.80;99.90;;;;;;5116197;27;20849;-63
2021/09/17 10:25:13;;;;;;;4.80;1.00;;;19.80;99.90;;;;;;5115673;27;20958;-63
2021/09/17 10:27:42;;;;;;;2.47;1.27;;;19.80;99.90;;;;;;5116314;27;20517;-63
2021/09/17 10:30:11;;;;;;;1.60;1.50;;;19.80;99.90;;;;;;5115392;27;20527;-63
2021/09/17 10:32:42;;;;;;;2.10;1.67;;;19.80;99.90;;;;;;5115292;27;20460;-63
2021/09/17 10:35:12;;;;;;;1.07;0.97;;;19.70;99.90;;;;;;5115519;27;20970;-63
2021/09/17 10:38:10;;;;;;;1.00;0.90;;;19.60;99.90;;;;;;5115974;27;20483;-64
2021/09/17 10:40:53;;;;;;;0.90;0.80;;;19.60;99.90;;;;;;5115963;27;20459;-63
2021/09/17 10:43:26;;;;;;;0.70;0.70;;;19.60;99.90;;;;;;5115768;27;20458;-62
2021/09/17 10:45:54;;;;;;;0.80;0.80;;;19.60;99.90;;;;;;5115203;27;20471;-64
2021/09/17 10:48:23;;;;;;;1.50;1.37;;;19.60;99.90;;;;;;5115595;27;20499;-64
2021/09/17 10:50:56;;;;;;;1.27;1.10;;;19.60;99.90;;;;;;5115026;27;20492;-64
2021/09/17 10:54:05;;;;;;;1.43;1.00;;;19.60;99.90;;;;;;5115563;27;20481;-64
2021/09/17 10:57:11;;;;;;;1.73;1.07;;;19.60;99.90;;;;;;5115458;27;20491;-64
2021/09/17 10:59:52;;;;;;;1.33;1.13;;;19.60;99.90;;;;;;5114782;27;20468;-64
2021/09/17 11:02:22;;;;;;;1.97;1.40;;;19.60;99.90;;;;;;5114579;27;20521;-64
2021/09/17 11:04:51;;;;;;;3.33;1.33;;;19.70;99.90;;;;;;5115423;27;20484;-64
2021/09/17 11:07:37;;;;;;;3.27;1.60;;;19.70;99.90;;;;;;5114696;27;20469;-63
2021/09/17 11:10:25;;;;;;;1.53;1.20;;;19.80;99.90;;;;;;5114299;27;20547;-63
2021/09/17 11:13:07;;;;;;;1.33;1.00;;;19.80;99.90;;;;;;5115375;27;20526;-63
2021/09/17 11:15:36;;;;;;;1.10;0.90;;;19.80;99.90;;;;;;5115447;27;20452;-63
2021/09/17 11:18:08;;;;;;;1.10;1.00;;;19.90;99.90;;;;;;5114513;27;20452;-63
2021/09/17 11:20:38;;;;;;;1.50;1.37;;;19.90;99.90;;;;;;5114815;27;20495;-63
2021/09/17 11:23:08;;;;;;;1.90;1.40;;;19.90;99.90;;;;;;5114714;27;20449;-63
2021/09/17 11:25:39;;;;;;;1.07;1.00;;;19.90;99.90;;;;;;5114871;27;20463;-63
2021/09/17 11:28:10;;;;;;;3.53;1.13;;;19.90;99.90;;;;;;5114550;27;20452;-63
2021/09/17 11:30:38;;;;;;;1.00;0.90;;;19.80;99.90;;;;;;5114684;27;20968;-64
2021/09/17 11:33:19;;;;;;;1.10;1.00;;;19.80;99.90;;;;;;5114229;27;20453;-63
2021/09/17 11:35:46;;;;;;;1.73;1.00;;;19.80;99.90;;;;;;5114400;27;20466;-63
2021/09/17 11:38:16;;;;;;;1.40;1.30;;;19.90;99.90;;;;;;5114712;27;20456;-64
2021/09/17 11:40:52;;;;;;;1.00;0.90;;;19.90;99.90;;;;;;5114371;27;20985;-64
2021/09/17 11:43:21;;;;;;;2.47;0.90;;;19.90;99.90;;;;;;5113393;27;20460;-63
2021/09/17 11:45:49;;;;;;;1.50;1.40;;;19.90;99.90;;;;;;5114011;27;20468;-63
2021/09/17 11:48:23;;;;;;;1.83;1.00;;;19.80;99.90;;;;;;5114546;27;20487;-63
2021/09/17 11:50:55;;;;;;;1.00;0.80;;;19.80;99.90;;;;;;5113824;27;20525;-63
2021/09/17 11:53:23;;;;;;;0.80;0.80;;;19.80;99.90;;;;;;5114210;27;20998;-63
2021/09/17 11:55:51;;;;;;;1.20;0.80;;;19.70;99.90;;;;;;5114005;27;20543;-64
2021/09/17 11:58:21;;;;;;;1.77;1.67;;;19.70;99.90;;;;;;5114360;27;20464;-63
2021/09/17 12:00:49;;;;;;;2.60;1.80;;;19.70;99.90;;;;;;5113811;27;20487;-63
2021/09/17 12:03:17;;;;;;;2.43;2.20;;;19.70;99.90;;;;;;5114087;27;20795;-63
2021/09/17 12:05:51;;;;;;;3.80;3.33;;;19.70;99.90;;;;;;5113687;27;20461;-64
2021/09/17 12:08:21;;;;;;;1.60;1.30;;;19.70;99.90;;;;;;5113920;27;20520;-63
2021/09/17 12:10:49;;;;;;;1.77;1.67;;;19.70;99.90;;;;;;5113466;27;20488;-63
2021/09/17 12:13:23;;;;;;;2.50;2.30;;;19.80;99.90;;;;;;5113932;27;20526;-63
2021/09/17 12:15:57;;;;;;;1.60;1.50;;;19.70;99.90;;;;;;5113556;27;20463;-63
2021/09/17 12:18:27;;;;;;;1.73;1.23;;;19.70;99.60;;;;;;5113821;27;20547;-63
2021/09/17 12:20:56;;;;;;;1.87;1.27;;;19.80;99.70;;;;;;5113341;27;20464;-62
2021/09/17 12:23:33;;;;;;;1.20;1.00;;;19.80;99.60;;;;;;5113673;27;21012;-62
2021/09/17 12:26:08;;;;;;;1.20;1.00;;;19.80;99.30;;;;;;5113392;27;20814;-62
2021/09/17 12:28:38;;;;;;;1.90;0.90;;;19.80;99.20;;;;;;5113571;27;20471;-63
2021/09/17 12:31:08;;;;;;;2.03;0.80;;;19.70;98.70;;;;;;5113131;27;20513;-63
2021/09/17 12:33:36;;;;;;;1.73;1.00;;;19.70;98.80;;;;;;5113699;27;20492;-63
2021/09/17 12:36:11;;;;;;;1.33;0.80;;;19.70;98.80;;;;;;5113025;27;20468;-63
2021/09/17 12:38:39;;;;;;;1.67;1.43;;;19.70;99.20;;;;;;5113557;27;20533;-63
2021/09/17 12:41:11;;;;;;;2.87;1.20;;;19.80;98.90;;;;;;5112914;27;20457;-63
2021/09/17 12:43:44;;;;;;;2.37;1.17;;;19.80;98.90;;;;;;5113416;27;20515;-63
2021/09/17 12:46:13;;;;;;;1.63;1.10;;;19.80;98.90;;;;;;5112946;27;20949;-64
2021/09/17 12:48:42;;;;;;;3.43;1.33;;;19.90;99.10;;;;;;5113376;27;20810;-64
2021/09/17 12:51:16;;;;;;;8.13;5.47;;;19.90;98.90;;;;;;5112934;27;20472;-63
2021/09/17 12:53:43;;;;;;;59.33;25.83;;;19.90;99.10;;;;;;5113278;27;20464;-64